Portada
METAR-TAF:

METAR-TAF

Aeropuertos :

Fort Richardson, Alaska, Estados Unidos

latitud: 61-15-45N, longitud: 149-39-17W, altitud: 115 m

Observación

El informe se hizo hace 29 minutos, a las 08:38 UTC
Viento calma
Temperatura -5°C
Humedad 93%
Presión 993 hPa
Visibilidad: 3.2 km
Cielo nuboso a una altura de 400 ft
Cielo cubierto a una altura de 2200 ft
poca nieve, neblina

METAR: PAFR 280838Z AUTO 00000KT 2SM -SN BR BKN004 OVC022 M05/M06 A2931 RMK AO2 CIG 004V024 BKN V SCT SLP936 PNO $

Hora: 00:07 (09:07 UTC)


TAF: falta

Observaciones y pronósticos meteorológicos de más de 4000 aeropuertos (mensajes METAR y TAF).

Los puntos amarillos y rojos representan las estaciones disponibles.

Ponga el ratón en el punto deseado para ver el nombre de la estación.

Haga clic para ver las observaciones y los pronósticos meteorológicos.

Para cambiar el mapa : haga clic en los botones verdes con una cruz de color negro para hacer un zoom, en el botón verde con un guión para alejar o en las flechas verdes para mapas adyacentes.


METAR-TAF: